Time;durP1;ratioP1;P1;durP2;ratioP2;P2;SDS_P1;SDS_P2;PMS_P1;PMS_P2;Temp;Humidity;BMP_temperature;BMP_pressure;BME280_temperature;BME280_humidity;BME280_pressure;Samples;Min_cycle;Max_cycle;Signal;HPM_P1;HPM_P2
2022/01/23 00:00:05;;;;;;;3.25;2.29;;;;;;;18.72;45.71;102179.77;;;;-54
2022/01/23 00:03:00;;;;;;;2.39;2.19;;;;;;;18.70;45.71;102177.98;;;;-54
2022/01/23 00:05:57;;;;;;;2.53;2.29;;;;;;;18.68;45.75;102179.61;;;;-54
2022/01/23 00:08:56;;;;;;;2.50;2.29;;;;;;;18.64;45.75;102182.64;;;;-57
2022/01/23 00:11:57;;;;;;;2.37;2.17;;;;;;;18.62;45.78;102184.19;;;;-59
2022/01/23 00:17:56;;;;;;;2.45;2.25;;;;;;;18.58;45.80;102184.93;;;;-54
2022/01/23 00:20:56;;;;;;;2.40;2.20;;;;;;;18.57;45.75;102180.97;;;;-54
2022/01/23 00:32:56;;;;;;;3.47;2.40;;;;;;;18.50;45.82;102191.98;;;;-51
2022/01/23 00:35:56;;;;;;;2.43;2.23;;;;;;;18.48;45.81;102189.73;;;;-53
2022/01/23 00:38:56;;;;;;;3.45;2.42;;;;;;;18.46;45.79;102197.20;;;;-54
2022/01/23 00:41:56;;;;;;;2.49;2.29;;;;;;;18.44;45.80;102192.50;;;;-58
2022/01/23 00:45:17;;;;;;;2.51;2.31;;;;;;;18.43;45.87;102188.17;;;;-59
2022/01/23 00:48:00;;;;;;;2.51;2.31;;;;;;;18.40;45.85;102188.38;;;;-60
2022/01/23 00:50:56;;;;;;;2.50;2.30;;;;;;;18.39;45.86;102188.27;;;;-57
2022/01/23 00:53:56;;;;;;;2.37;2.17;;;;;;;18.38;45.83;102179.52;;;;-59
2022/01/23 00:56:56;;;;;;;2.60;2.33;;;;;;;18.35;45.82;102180.81;;;;-58
2022/01/23 00:59:56;;;;;;;2.53;2.33;;;;;;;18.34;45.82;102178.52;;;;-58
2022/01/23 01:02:58;;;;;;;2.60;2.40;;;;;;;18.32;45.89;102175.63;;;;-58
2022/01/23 01:05:56;;;;;;;2.61;2.41;;;;;;;18.30;45.88;102171.73;;;;-59
2022/01/23 01:09:01;;;;;;;2.50;2.30;;;;;;;18.28;45.93;102168.21;;;;-60
2022/01/23 01:12:03;;;;;;;2.87;2.46;;;;;;;18.27;45.94;102166.52;;;;-58
2022/01/23 01:15:22;;;;;;;2.57;2.37;;;;;;;18.26;45.95;102176.37;;;;-58
2022/01/23 01:30:23;;;;;;;2.56;2.29;;;;;;;18.18;45.97;102196.72;;;;-59
2022/01/23 01:33:06;;;;;;;3.09;2.50;;;;;;;18.16;45.96;102196.63;;;;-58
2022/01/23 01:36:00;;;;;;;2.63;2.43;;;;;;;18.15;46.01;102189.50;;;;-58
2022/01/23 01:38:56;;;;;;;2.53;2.33;;;;;;;18.15;45.96;102197.45;;;;-51
2022/01/23 01:41:56;;;;;;;2.62;2.41;;;;;;;18.13;46.01;102183.58;;;;-51
2022/01/23 01:44:56;;;;;;;2.50;2.30;;;;;;;18.12;45.99;102187.05;;;;-57
2022/01/23 01:47:56;;;;;;;2.56;2.36;;;;;;;18.10;45.99;102189.16;;;;-60
2022/01/23 01:50:58;;;;;;;2.79;2.47;;;;;;;18.08;46.00;102182.77;;;;-59
2022/01/23 01:54:03;;;;;;;2.48;2.28;;;;;;;18.07;45.97;102181.44;;;;-57
2022/01/23 01:57:05;;;;;;;2.55;2.35;;;;;;;18.06;45.96;102180.48;;;;-58
2022/01/23 02:00:14;;;;;;;2.58;2.38;;;;;;;18.04;46.04;102177.64;;;;-58
2022/01/23 02:09:56;;;;;;;2.47;2.27;;;;;;;18.00;46.07;102166.53;;;;-58
2022/01/23 02:13:12;;;;;;;2.70;2.50;;;;;;;18.00;46.04;102162.54;;;;-54
2022/01/23 02:23:09;;;;;;;2.70;2.50;;;;;;;17.95;46.09;102161.20;;;;-54
2022/01/23 02:53:17;;;;;;;2.67;2.43;;;;;;;17.83;46.08;102167.56;;;;-54
2022/01/23 02:55:57;;;;;;;3.13;2.54;;;;;;;17.82;46.12;102171.29;;;;-53
2022/01/23 02:59:00;;;;;;;2.63;2.38;;;;;;;17.81;46.13;102168.83;;;;-54
2022/01/23 03:02:09;;;;;;;2.54;2.34;;;;;;;17.80;46.10;102166.56;;;;-54
2022/01/23 03:05:01;;;;;;;2.47;2.27;;;;;;;17.79;46.16;102172.39;;;;-54
2022/01/23 03:08:03;;;;;;;2.70;2.50;;;;;;;17.78;46.10;102180.03;;;;-54
2022/01/23 03:11:06;;;;;;;2.92;2.62;;;;;;;17.77;46.13;102181.55;;;;-54
2022/01/23 03:14:11;;;;;;;2.71;2.51;;;;;;;17.75;46.19;102185.70;;;;-54
2022/01/23 03:26:17;;;;;;;2.69;2.45;;;;;;;17.72;46.16;102176.34;;;;-60
2022/01/23 03:29:21;;;;;;;2.76;2.56;;;;;;;17.72;46.16;102179.45;;;;-58
2022/01/23 03:32:19;;;;;;;2.68;2.48;;;;;;;17.71;46.20;102182.02;;;;-57
2022/01/23 03:34:56;;;;;;;2.65;2.45;;;;;;;17.69;46.14;102188.44;;;;-59
2022/01/23 03:37:56;;;;;;;2.69;2.49;;;;;;;17.69;46.14;102189.64;;;;-61
2022/01/23 03:40:56;;;;;;;2.79;2.59;;;;;;;17.67;46.10;102186.01;;;;-58
2022/01/23 03:43:57;;;;;;;3.18;2.64;;;;;;;17.65;46.12;102180.31;;;;-59
2022/01/23 03:47:20;;;;;;;2.60;2.40;;;;;;;17.65;46.12;102185.92;;;;-58
2022/01/23 03:49:56;;;;;;;2.69;2.49;;;;;;;17.64;46.12;102184.88;;;;-51
2022/01/23 03:52:56;;;;;;;2.65;2.45;;;;;;;17.63;46.11;102177.23;;;;-54
2022/01/23 03:55:56;;;;;;;2.78;2.58;;;;;;;17.62;46.16;102178.11;;;;-51
2022/01/23 03:58:56;;;;;;;2.79;2.59;;;;;;;17.61;46.18;102173.83;;;;-51
2022/01/23 04:01:56;;;;;;;2.71;2.51;;;;;;;17.60;46.10;102182.24;;;;-51
2022/01/23 04:04:56;;;;;;;2.65;2.45;;;;;;;17.60;46.15;102175.14;;;;-51
2022/01/23 04:07:56;;;;;;;2.70;2.50;;;;;;;17.58;46.20;102174.62;;;;-51
2022/01/23 04:10:56;;;;;;;3.26;2.60;;;;;;;17.58;46.18;102182.23;;;;-52
2022/01/23 04:14:01;;;;;;;2.79;2.53;;;;;;;17.57;46.18;102179.09;;;;-51
2022/01/23 04:17:29;;;;;;;2.61;2.41;;;;;;;17.56;46.14;102177.20;;;;-51
2022/01/23 04:20:08;;;;;;;3.00;2.70;;;;;;;17.55;46.16;102175.69;;;;-51
2022/01/23 04:32:08;;;;;;;3.07;2.79;;;;;;;17.51;46.23;102178.27;;;;-59
2022/01/23 04:35:13;;;;;;;2.79;2.59;;;;;;;17.50;46.20;102165.59;;;;-59
2022/01/23 04:59:34;;;;;;;3.16;2.79;;;;;;;17.45;46.22;102167.88;;;;-51
2022/01/23 04:59:56;;;;;;;3.20;2.90;;;;;;;17.43;46.21;102175.78;;;;-52
2022/01/23 05:03:45;;;;;;;2.80;2.60;;;;;;;17.43;46.23;102177.12;;;;-51
2022/01/23 05:06:00;;;;;;;2.96;2.74;;;;;;;17.41;46.19;102195.07;;;;-51
2022/01/23 05:08:56;;;;;;;3.01;2.71;;;;;;;17.41;46.22;102187.48;;;;-51
2022/01/23 05:11:56;;;;;;;2.74;2.54;;;;;;;17.40;46.21;102178.38;;;;-52
2022/01/23 05:14:56;;;;;;;3.03;2.74;;;;;;;17.39;46.24;102179.74;;;;-61
2022/01/23 05:17:56;;;;;;;3.13;2.65;;;;;;;17.38;46.20;102180.42;;;;-58
2022/01/23 05:21:07;;;;;;;2.81;2.61;;;;;;;17.37;46.21;102183.83;;;;-57
2022/01/23 05:23:56;;;;;;;3.28;2.70;;;;;;;17.36;46.21;102183.58;;;;-57
2022/01/23 05:26:56;;;;;;;3.21;2.80;;;;;;;17.36;46.22;102181.29;;;;-60
2022/01/23 05:29:58;;;;;;;2.83;2.63;;;;;;;17.35;46.23;102184.92;;;;-57
2022/01/23 05:32:58;;;;;;;2.69;2.49;;;;;;;17.34;46.23;102182.36;;;;-58
2022/01/23 05:35:56;;;;;;;2.80;2.60;;;;;;;17.33;46.21;102177.05;;;;-59
2022/01/23 05:38:56;;;;;;;3.13;2.85;;;;;;;17.33;46.21;102177.12;;;;-59
2022/01/23 05:42:03;;;;;;;3.11;2.81;;;;;;;17.34;46.20;102186.23;;;;-54
2022/01/23 05:44:56;;;;;;;13.55;9.45;;;;;;;17.23;44.95;102193.21;;;;-59
2022/01/23 05:47:56;;;;;;;14.58;9.77;;;;;;;17.20;44.72;102200.20;;;;-58
2022/01/23 05:50:56;;;;;;;11.99;9.60;;;;;;;17.16;44.47;102198.08;;;;-58
2022/01/23 05:53:56;;;;;;;12.02;9.85;;;;;;;17.11;44.24;102203.94;;;;-58
2022/01/23 05:56:56;;;;;;;12.86;10.49;;;;;;;17.05;44.04;102215.75;;;;-58
2022/01/23 05:59:56;;;;;;;12.47;10.86;;;;;;;16.98;43.83;102217.31;;;;-57
2022/01/23 06:02:56;;;;;;;13.35;10.62;;;;;;;16.92;43.74;102213.81;;;;-57
2022/01/23 06:05:57;;;;;;;13.15;10.81;;;;;;;16.87;43.77;102211.73;;;;-57
2022/01/23 06:08:56;;;;;;;12.81;10.94;;;;;;;16.82;43.66;102210.36;;;;-58
2022/01/23 06:11:56;;;;;;;13.12;11.21;;;;;;;16.76;43.60;102220.59;;;;-58
2022/01/23 06:14:56;;;;;;;12.29;10.96;;;;;;;16.71;43.61;102218.17;;;;-58
2022/01/23 06:17:56;;;;;;;13.13;11.51;;;;;;;16.67;43.61;102218.38;;;;-57
2022/01/23 06:20:56;;;;;;;13.29;11.31;;;;;;;16.64;43.56;102219.45;;;;-58
2022/01/23 06:24:03;;;;;;;12.73;11.11;;;;;;;16.60;43.58;102224.64;;;;-59
2022/01/23 06:26:56;;;;;;;13.75;11.57;;;;;;;16.56;43.60;102225.10;;;;-58
2022/01/23 06:29:56;;;;;;;13.41;10.73;;;;;;;16.57;43.98;102227.65;;;;-58
2022/01/23 06:32:56;;;;;;;13.01;9.83;;;;;;;16.63;44.24;102230.75;;;;-59
2022/01/23 06:35:56;;;;;;;12.63;8.61;;;;;;;16.68;44.53;102227.89;;;;-58
2022/01/23 06:38:56;;;;;;;9.82;8.33;;;;;;;16.74;44.62;102225.75;;;;-59
2022/01/23 06:41:56;;;;;;;11.50;7.43;;;;;;;16.80;44.75;102230.39;;;;-57
2022/01/23 06:44:57;;;;;;;11.16;6.58;;;;;;;16.84;44.88;102236.77;;;;-58
2022/01/23 06:47:56;;;;;;;10.21;6.25;;;;;;;16.91;45.42;102232.03;;;;-57
2022/01/23 06:50:56;;;;;;;10.03;6.15;;;;;;;16.96;45.36;102234.41;;;;-59
2022/01/23 06:53:56;;;;;;;10.45;5.63;;;;;;;17.04;45.48;102234.28;;;;-58
2022/01/23 06:56:56;;;;;;;7.74;5.43;;;;;;;17.13;45.54;102231.50;;;;-59
2022/01/23 06:59:56;;;;;;;10.59;5.20;;;;;;;17.18;45.43;102233.50;;;;-57
2022/01/23 07:02:56;;;;;;;7.37;5.04;;;;;;;17.22;45.51;102230.72;;;;-58
2022/01/23 07:05:56;;;;;;;6.47;4.96;;;;;;;17.27;45.56;102235.38;;;;-58
2022/01/23 07:08:56;;;;;;;7.99;4.92;;;;;;;17.33;45.67;102243.45;;;;-57
2022/01/23 07:11:56;;;;;;;5.85;4.75;;;;;;;17.36;45.62;102246.22;;;;-57
2022/01/23 07:14:56;;;;;;;6.61;4.55;;;;;;;17.39;45.64;102251.78;;;;-57
2022/01/23 07:17:56;;;;;;;5.57;4.55;;;;;;;17.42;45.69;102258.96;;;;-59
2022/01/23 07:20:56;;;;;;;6.67;4.63;;;;;;;17.44;45.63;102270.55;;;;-60
2022/01/23 07:23:56;;;;;;;6.57;4.61;;;;;;;17.46;45.59;102276.81;;;;-55
2022/01/23 07:26:58;;;;;;;4.59;4.09;;;;;;;17.47;45.59;102281.05;;;;-59
2022/01/23 07:29:56;;;;;;;5.89;4.37;;;;;;;17.50;45.61;102284.84;;;;-57
2022/01/23 07:32:56;;;;;;;5.23;4.29;;;;;;;17.50;45.57;102274.15;;;;-58
2022/01/23 07:35:56;;;;;;;6.35;4.05;;;;;;;17.52;45.62;102273.58;;;;-57
2022/01/23 07:38:56;;;;;;;5.93;4.16;;;;;;;17.54;45.58;102270.98;;;;-57
2022/01/23 07:41:56;;;;;;;4.74;3.81;;;;;;;17.53;45.60;102279.45;;;;-57
2022/01/23 07:44:57;;;;;;;4.86;4.03;;;;;;;17.55;45.58;102279.85;;;;-57
2022/01/23 07:47:56;;;;;;;5.32;4.01;;;;;;;17.56;45.55;102285.34;;;;-57
2022/01/23 07:50:56;;;;;;;6.17;3.80;;;;;;;17.54;45.57;102285.67;;;;-57
2022/01/23 07:53:56;;;;;;;5.30;3.72;;;;;;;17.56;45.50;102288.51;;;;-57
2022/01/23 07:56:56;;;;;;;4.79;3.97;;;;;;;17.56;45.49;102289.25;;;;-57
2022/01/23 07:59:56;;;;;;;4.78;3.77;;;;;;;17.56;45.57;102291.34;;;;-57
2022/01/23 08:02:56;;;;;;;5.46;3.93;;;;;;;17.55;45.50;102289.44;;;;-57
2022/01/23 08:05:56;;;;;;;4.51;3.77;;;;;;;17.55;45.48;102290.97;;;;-57
2022/01/23 08:08:56;;;;;;;5.11;3.87;;;;;;;17.56;45.51;102297.02;;;;-56
2022/01/23 08:11:56;;;;;;;4.88;3.78;;;;;;;17.54;45.48;102297.84;;;;-57
2022/01/23 08:14:56;;;;;;;4.46;3.77;;;;;;;17.55;45.50;102301.42;;;;-57
2022/01/23 08:17:56;;;;;;;4.30;3.77;;;;;;;17.54;45.49;102305.30;;;;-57
2022/01/23 08:20:56;;;;;;;4.17;3.77;;;;;;;17.54;45.50;102305.03;;;;-57
2022/01/23 08:23:56;;;;;;;4.98;3.63;;;;;;;17.53;45.50;102311.30;;;;-57
2022/01/23 08:26:56;;;;;;;4.19;3.79;;;;;;;17.52;45.49;102312.90;;;;-57
2022/01/23 08:29:56;;;;;;;4.16;3.76;;;;;;;17.51;45.50;102315.92;;;;-57
2022/01/23 08:32:56;;;;;;;4.45;3.71;;;;;;;17.51;45.54;102316.81;;;;-57
2022/01/23 08:35:57;;;;;;;4.68;3.79;;;;;;;17.51;45.47;102318.91;;;;-57
2022/01/23 08:38:58;;;;;;;4.19;3.79;;;;;;;17.51;45.48;102316.06;;;;-57
2022/01/23 08:41:56;;;;;;;4.21;3.71;;;;;;;17.50;45.52;102316.94;;;;-57
2022/01/23 08:44:56;;;;;;;5.04;3.83;;;;;;;17.49;45.47;102318.70;;;;-57
2022/01/23 08:47:56;;;;;;;3.98;3.58;;;;;;;17.50;45.47;102316.70;;;;-57
2022/01/23 08:50:56;;;;;;;4.30;3.79;;;;;;;17.49;45.48;102315.50;;;;-57
2022/01/23 08:53:58;;;;;;;4.29;3.71;;;;;;;17.49;45.46;102319.23;;;;-57
2022/01/23 08:56:56;;;;;;;3.97;3.57;;;;;;;17.48;45.48;102319.69;;;;-60
2022/01/23 08:59:56;;;;;;;4.11;3.58;;;;;;;17.47;45.47;102321.37;;;;-60
2022/01/23 09:02:57;;;;;;;4.26;3.80;;;;;;;17.47;45.45;102320.11;;;;-59
2022/01/23 09:05:56;;;;;;;5.23;3.96;;;;;;;17.46;45.50;102320.50;;;;-59
2022/01/23 09:08:58;;;;;;;4.38;3.94;;;;;;;17.46;45.48;102319.76;;;;-59
2022/01/23 09:12:01;;;;;;;3.83;3.49;;;;;;;17.45;45.48;102314.42;;;;-59
2022/01/23 09:14:56;;;;;;;4.27;3.87;;;;;;;17.45;45.48;102322.29;;;;-59
2022/01/23 09:17:56;;;;;;;4.32;3.92;;;;;;;17.44;45.50;102321.61;;;;-59
2022/01/23 09:20:56;;;;;;;4.80;3.91;;;;;;;17.44;45.48;102320.72;;;;-59
2022/01/23 09:23:56;;;;;;;4.09;3.69;;;;;;;17.43;45.46;102320.14;;;;-57
2022/01/23 09:27:02;;;;;;;5.06;3.93;;;;;;;17.43;45.47;102322.76;;;;-57
2022/01/23 09:30:05;;;;;;;4.35;3.93;;;;;;;17.42;45.51;102320.39;;;;-57
2022/01/23 09:32:56;;;;;;;4.47;3.77;;;;;;;17.42;45.52;102318.28;;;;-57
2022/01/23 09:35:56;;;;;;;10.66;4.04;;;;;;;17.43;46.59;102315.03;;;;-45
2022/01/23 09:38:56;;;;;;;7.92;4.55;;;;;;;17.45;46.54;102312.80;;;;-51
2022/01/23 09:41:56;;;;;;;6.43;4.35;;;;;;;17.49;46.41;102313.72;;;;-48
2022/01/23 09:44:56;;;;;;;5.16;4.42;;;;;;;17.54;46.74;102315.91;;;;-53
2022/01/23 09:47:56;;;;;;;7.64;4.99;;;;;;;17.59;46.43;102316.84;;;;-45
2022/01/23 09:50:56;;;;;;;8.09;4.67;;;;;;;17.66;46.55;102321.78;;;;-51
2022/01/23 09:53:56;;;;;;;6.93;4.38;;;;;;;17.74;46.86;102319.91;;;;-52
2022/01/23 09:56:56;;;;;;;6.06;4.08;;;;;;;17.81;46.78;102320.73;;;;-49
2022/01/23 09:59:56;;;;;;;6.51;4.32;;;;;;;17.87;46.83;102313.81;;;;-52
2022/01/23 10:02:57;;;;;;;13.81;4.12;;;;;;;17.96;47.36;102311.66;;;;-61
2022/01/23 10:05:56;;;;;;;4.69;3.66;;;;;;;18.05;46.87;102313.00;;;;-53
2022/01/23 10:08:56;;;;;;;6.12;4.01;;;;;;;18.09;46.86;102306.03;;;;-53
2022/01/23 10:11:56;;;;;;;5.04;3.68;;;;;;;18.15;46.86;102307.09;;;;-63
2022/01/23 10:14:56;;;;;;;5.44;3.94;;;;;;;18.20;46.76;102311.30;;;;-57
2022/01/23 10:17:56;;;;;;;4.91;3.74;;;;;;;18.25;46.76;102310.27;;;;-58
2022/01/23 10:20:56;;;;;;;5.83;3.81;;;;;;;18.31;46.91;102304.34;;;;-57
2022/01/23 10:23:56;;;;;;;4.67;3.82;;;;;;;18.35;46.79;102309.06;;;;-61
2022/01/23 10:26:58;;;;;;;4.39;3.63;;;;;;;18.42;46.88;102311.11;;;;-56
2022/01/23 10:29:56;;;;;;;3.91;3.51;;;;;;;18.46;46.77;102308.91;;;;-56
2022/01/23 10:32:56;;;;;;;3.97;3.47;;;;;;;18.50;46.72;102310.87;;;;-55
2022/01/23 10:35:56;;;;;;;4.55;3.69;;;;;;;18.55;46.74;102309.79;;;;-58
2022/01/23 10:38:57;;;;;;;3.87;3.47;;;;;;;18.60;46.62;102303.54;;;;-57
2022/01/23 10:42:12;;;;;;;4.42;3.67;;;;;;;18.63;46.63;102302.51;;;;-59
2022/01/23 10:47:59;;;;;;;6.82;3.56;;;;;;;18.69;46.64;102300.25;;;;-60
2022/01/23 10:50:56;;;;;;;5.49;3.75;;;;;;;18.71;46.42;102299.83;;;;-51
2022/01/23 10:53:56;;;;;;;4.50;3.48;;;;;;;18.69;45.93;102301.22;;;;-51
2022/01/23 10:56:56;;;;;;;3.97;3.43;;;;;;;18.68;45.81;102303.14;;;;-51
2022/01/23 10:59:56;;;;;;;5.00;3.51;;;;;;;18.66;45.76;102302.34;;;;-51
2022/01/23 11:02:56;;;;;;;5.49;3.43;;;;;;;18.67;45.83;102300.50;;;;-51
2022/01/23 11:05:56;;;;;;;4.10;3.30;;;;;;;18.67;45.80;102302.13;;;;-51
2022/01/23 11:08:57;;;;;;;4.51;3.25;;;;;;;18.68;45.82;102299.41;;;;-51
2022/01/23 11:12:01;;;;;;;3.90;3.50;;;;;;;18.69;45.72;102297.23;;;;-51
2022/01/23 11:18:56;;;;;;;3.91;3.23;;;;;;;18.71;45.71;102299.82;;;;-51
2022/01/23 11:21:56;;;;;;;3.81;3.21;;;;;;;18.71;45.64;102296.02;;;;-50
2022/01/23 11:24:56;;;;;;;5.43;3.99;;;;;;;18.74;45.55;102296.80;;;;-50
2022/01/23 11:27:56;;;;;;;7.96;3.59;;;;;;;18.78;45.64;102294.40;;;;-60
2022/01/23 11:30:56;;;;;;;4.87;3.40;;;;;;;18.82;45.81;102294.91;;;;-51
2022/01/23 11:33:56;;;;;;;3.82;3.38;;;;;;;18.86;45.84;102292.88;;;;-52
2022/01/23 11:36:56;;;;;;;5.13;3.59;;;;;;;18.91;45.85;102287.00;;;;-60
2022/01/23 11:40:01;;;;;;;5.71;3.52;;;;;;;18.95;45.80;102284.79;;;;-49
2022/01/23 11:55:56;;;;;;;3.62;3.25;;;;;;;19.12;45.87;102268.67;;;;-59
2022/01/23 11:58:56;;;;;;;3.80;3.35;;;;;;;19.16;45.92;102273.05;;;;-52
2022/01/23 12:01:56;;;;;;;3.79;3.43;;;;;;;19.19;45.78;102266.24;;;;-54
2022/01/23 12:06:56;;;;;;;3.76;3.39;;;;;;;19.23;45.87;102265.32;;;;-49
2022/01/23 12:09:56;;;;;;;4.00;3.30;;;;;;;19.27;45.90;102260.69;;;;-50
2022/01/23 12:13:03;;;;;;;4.97;3.55;;;;;;;19.29;45.77;102255.88;;;;-52
2022/01/23 12:16:41;;;;;;;4.35;3.47;;;;;;;19.32;45.78;102257.55;;;;-52
2022/01/23 12:19:57;;;;;;;3.96;3.57;;;;;;;19.35;45.70;102253.74;;;;-59
2022/01/23 12:22:56;;;;;;;3.90;3.50;;;;;;;19.40;45.75;102249.34;;;;-49
2022/01/23 12:25:57;;;;;;;5.60;3.65;;;;;;;19.42;45.58;102249.70;;;;-50
2022/01/23 12:28:56;;;;;;;3.99;3.37;;;;;;;19.40;45.25;102251.41;;;;-51
2022/01/23 12:31:56;;;;;;;3.92;3.46;;;;;;;19.40;45.37;102247.23;;;;-63
2022/01/23 12:34:56;;;;;;;4.45;3.13;;;;;;;19.38;45.26;102246.06;;;;-60
2022/01/23 12:37:56;;;;;;;3.93;3.23;;;;;;;19.37;45.26;102243.57;;;;-53
2022/01/23 12:40:56;;;;;;;3.71;3.29;;;;;;;19.39;45.25;102239.41;;;;-53
2022/01/23 12:43:56;;;;;;;3.88;3.41;;;;;;;19.38;45.17;102236.66;;;;-53
2022/01/23 12:46:56;;;;;;;3.53;3.23;;;;;;;19.38;45.22;102234.59;;;;-59
2022/01/23 12:49:56;;;;;;;3.85;3.39;;;;;;;19.38;45.13;102232.64;;;;-60
2022/01/23 12:52:56;;;;;;;3.83;3.41;;;;;;;19.39;45.20;102229.83;;;;-59
2022/01/23 12:55:56;;;;;;;4.27;3.41;;;;;;;19.41;45.15;102227.61;;;;-60
2022/01/23 12:58:59;;;;;;;3.71;3.41;;;;;;;19.41;45.13;102228.50;;;;-62
2022/01/23 13:02:01;;;;;;;3.51;3.20;;;;;;;19.42;45.09;102230.47;;;;-59
2022/01/23 13:04:57;;;;;;;3.70;3.29;;;;;;;19.43;45.14;102220.61;;;;-53
2022/01/23 13:08:08;;;;;;;3.82;3.32;;;;;;;19.44;45.12;102223.27;;;;-59
2022/01/23 13:11:20;;;;;;;4.08;3.35;;;;;;;19.46;45.08;102221.42;;;;-59
2022/01/23 13:13:58;;;;;;;3.40;3.09;;;;;;;19.45;45.12;102219.30;;;;-60
2022/01/23 13:17:26;;;;;;;3.70;3.30;;;;;;;19.46;45.08;102214.11;;;;-60
2022/01/23 13:31:59;;;;;;;6.14;3.18;;;;;;;19.61;45.30;102204.59;;;;-54
2022/01/23 13:34:57;;;;;;;3.87;3.45;;;;;;;19.65;45.45;102205.30;;;;-56
2022/01/23 13:37:59;;;;;;;4.63;3.25;;;;;;;19.68;45.44;102200.38;;;;-52
2022/01/23 13:41:08;;;;;;;3.79;3.39;;;;;;;19.70;45.46;102199.64;;;;-57
2022/01/23 13:58:28;;;;;;;3.42;3.12;;;;;;;19.83;45.24;102197.89;;;;-59
2022/01/23 14:00:56;;;;;;;3.44;3.14;;;;;;;19.85;45.20;102199.33;;;;-60
2022/01/23 14:03:56;;;;;;;4.35;3.47;;;;;;;19.84;45.06;102193.10;;;;-60
2022/01/23 14:06:56;;;;;;;4.99;2.91;;;;;;;19.85;45.31;102190.16;;;;-58
2022/01/23 14:09:56;;;;;;;3.91;3.51;;;;;;;19.83;44.77;102189.67;;;;-57
2022/01/23 14:12:56;;;;;;;3.83;3.08;;;;;;;19.80;44.89;102188.21;;;;-58
2022/01/23 14:15:56;;;;;;;4.71;3.23;;;;;;;19.81;44.99;102194.49;;;;-58
2022/01/23 14:18:56;;;;;;;3.41;3.03;;;;;;;19.80;44.92;102193.50;;;;-58
2022/01/23 14:21:56;;;;;;;3.97;3.09;;;;;;;19.80;44.87;102195.04;;;;-58
2022/01/23 14:24:56;;;;;;;3.56;3.23;;;;;;;19.80;44.95;102195.04;;;;-58
2022/01/23 14:27:56;;;;;;;4.64;3.00;;;;;;;19.80;44.88;102192.44;;;;-48
2022/01/23 14:30:58;;;;;;;3.45;2.98;;;;;;;19.80;44.95;102195.77;;;;-48
2022/01/23 14:33:59;;;;;;;3.37;3.02;;;;;;;19.80;44.86;102195.85;;;;-48
2022/01/23 14:36:56;;;;;;;3.37;2.95;;;;;;;19.82;44.89;102201.17;;;;-51
2022/01/23 14:39:56;;;;;;;3.31;3.01;;;;;;;19.81;44.87;102196.36;;;;-51
2022/01/23 14:42:56;;;;;;;3.39;2.97;;;;;;;19.81;44.90;102195.80;;;;-58
2022/01/23 14:45:56;;;;;;;4.14;3.08;;;;;;;19.82;44.88;102192.75;;;;-58
2022/01/23 14:48:59;;;;;;;3.77;2.90;;;;;;;19.83;44.88;102189.99;;;;-51
2022/01/23 14:51:56;;;;;;;3.83;2.76;;;;;;;19.83;44.85;102194.48;;;;-52
2022/01/23 14:54:56;;;;;;;3.17;2.87;;;;;;;19.83;44.85;102195.78;;;;-51
2022/01/23 14:58:00;;;;;;;3.12;2.82;;;;;;;19.84;44.85;102193.59;;;;-52
2022/01/23 15:00:56;;;;;;;4.49;3.03;;;;;;;19.88;45.05;102188.39;;;;-57
2022/01/23 15:03:56;;;;;;;3.29;2.96;;;;;;;19.93;45.07;102186.91;;;;-53
2022/01/23 15:06:56;;;;;;;3.35;3.05;;;;;;;19.95;45.13;102185.19;;;;-52
2022/01/23 15:09:56;;;;;;;4.64;3.19;;;;;;;19.98;44.82;102189.05;;;;-52
2022/01/23 15:12:56;;;;;;;5.47;3.34;;;;;;;20.00;44.90;102193.06;;;;-48
2022/01/23 15:15:56;;;;;;;3.67;3.27;;;;;;;20.02;44.93;102192.72;;;;-49
2022/01/23 15:18:56;;;;;;;4.31;3.55;;;;;;;20.03;44.86;102198.22;;;;-50
2022/01/23 15:21:56;;;;;;;3.41;3.11;;;;;;;20.06;44.95;102192.28;;;;-51
2022/01/23 15:24:56;;;;;;;4.67;3.18;;;;;;;20.07;45.04;102189.32;;;;-53
2022/01/23 15:27:56;;;;;;;3.61;3.29;;;;;;;20.11;45.21;102188.51;;;;-51
2022/01/23 15:30:56;;;;;;;3.38;3.07;;;;;;;20.13;45.22;102195.09;;;;-51
2022/01/23 15:33:56;;;;;;;3.57;3.23;;;;;;;20.15;45.15;102199.67;;;;-54
2022/01/23 15:36:56;;;;;;;3.39;3.09;;;;;;;20.17;45.21;102199.16;;;;-55
2022/01/23 15:39:56;;;;;;;3.50;3.12;;;;;;;20.17;45.18;102198.39;;;;-53
2022/01/23 15:42:56;;;;;;;3.45;3.15;;;;;;;20.20;45.26;102197.04;;;;-59
2022/01/23 15:45:56;;;;;;;4.97;3.09;;;;;;;20.19;45.22;102201.27;;;;-57
2022/01/23 15:48:56;;;;;;;3.70;3.21;;;;;;;20.20;45.15;102201.84;;;;-57
2022/01/23 15:51:56;;;;;;;3.56;3.21;;;;;;;20.23;45.25;102200.53;;;;-58
2022/01/23 15:54:55;;;;;;;3.80;3.11;;;;;;;20.25;45.25;102203.77;;;;-57
2022/01/23 15:57:56;;;;;;;3.57;3.15;;;;;;;20.25;45.12;102203.48;;;;-54
2022/01/23 16:00:56;;;;;;;3.46;2.91;;;;;;;20.27;45.18;102199.80;;;;-62
2022/01/23 16:03:56;;;;;;;3.44;3.14;;;;;;;20.27;45.12;102199.97;;;;-58
2022/01/23 16:06:56;;;;;;;3.35;3.05;;;;;;;20.27;45.06;102199.04;;;;-52
2022/01/23 16:09:56;;;;;;;4.89;3.43;;;;;;;20.30;44.97;102203.06;;;;-51
2022/01/23 16:12:56;;;;;;;3.97;3.36;;;;;;;20.32;45.06;102206.05;;;;-53
2022/01/23 16:15:56;;;;;;;4.02;3.33;;;;;;;20.33;45.02;102204.52;;;;-52
2022/01/23 16:18:56;;;;;;;4.09;3.25;;;;;;;20.35;45.16;102207.84;;;;-51
2022/01/23 16:21:56;;;;;;;3.39;3.09;;;;;;;20.35;45.16;102204.01;;;;-50
2022/01/23 16:24:56;;;;;;;4.55;3.26;;;;;;;20.39;45.10;102198.92;;;;-51
2022/01/23 16:27:55;;;;;;;5.55;3.45;;;;;;;20.39;45.00;102203.16;;;;-62
2022/01/23 16:30:56;;;;;;;3.55;3.22;;;;;;;20.35;45.17;102196.77;;;;-51
2022/01/23 16:33:56;;;;;;;13.05;4.15;;;;;;;20.33;44.73;102197.52;;;;-56
2022/01/23 16:36:56;;;;;;;10.31;4.20;;;;;;;20.32;44.60;102202.87;;;;-53
2022/01/23 16:39:55;;;;;;;7.71;3.92;;;;;;;20.35;44.73;102201.48;;;;-51
2022/01/23 16:42:55;;;;;;;5.77;4.13;;;;;;;20.38;44.82;102206.72;;;;-51
2022/01/23 16:45:56;;;;;;;4.77;3.59;;;;;;;20.39;44.83;102205.77;;;;-55
2022/01/23 16:48:55;;;;;;;5.80;3.51;;;;;;;20.43;45.01;102211.34;;;;-52
2022/01/23 16:51:56;;;;;;;6.67;3.47;;;;;;;20.44;45.12;102212.77;;;;-53
2022/01/23 16:54:56;;;;;;;5.52;3.39;;;;;;;20.45;45.03;102210.59;;;;-52
2022/01/23 16:57:56;;;;;;;7.61;3.48;;;;;;;20.45;45.03;102212.06;;;;-53
2022/01/23 17:00:56;;;;;;;5.65;4.21;;;;;;;20.45;44.94;102216.61;;;;-52
2022/01/23 17:03:56;;;;;;;8.33;3.70;;;;;;;20.45;45.29;102215.64;;;;-52
2022/01/23 17:06:58;;;;;;;7.57;3.65;;;;;;;20.40;44.70;102214.60;;;;-54
2022/01/23 17:09:56;;;;;;;7.40;4.53;;;;;;;20.37;44.85;102211.48;;;;-53
2022/01/23 17:12:56;;;;;;;8.59;4.73;;;;;;;20.34;44.44;102211.56;;;;-52
2022/01/23 17:15:56;;;;;;;9.73;4.39;;;;;;;20.37;44.90;102203.59;;;;-55
2022/01/23 17:18:55;;;;;;;6.32;4.01;;;;;;;20.43;45.42;102201.73;;;;-50
2022/01/23 17:21:56;;;;;;;6.63;3.81;;;;;;;20.42;44.99;102202.38;;;;-50
2022/01/23 17:24:59;;;;;;;8.07;4.60;;;;;;;20.36;44.26;102202.59;;;;-48
2022/01/23 17:27:56;;;;;;;11.15;4.74;;;;;;;20.37;44.92;102198.78;;;;-54
2022/01/23 17:30:56;;;;;;;7.92;5.52;;;;;;;20.33;44.22;102200.03;;;;-60
2022/01/23 17:33:56;;;;;;;14.01;5.29;;;;;;;20.27;44.43;102198.55;;;;-58
2022/01/23 17:36:56;;;;;;;9.42;5.08;;;;;;;20.27;44.68;102201.11;;;;-51
2022/01/23 17:39:56;;;;;;;7.37;4.73;;;;;;;20.32;44.86;102194.98;;;;-54
2022/01/23 17:42:56;;;;;;;6.78;4.59;;;;;;;20.39;44.84;102189.06;;;;-59
2022/01/23 17:45:56;;;;;;;7.52;4.39;;;;;;;20.43;44.75;102191.88;;;;-60
2022/01/23 17:49:05;;;;;;;6.39;4.15;;;;;;;20.45;44.82;102184.28;;;;-62
2022/01/23 17:51:56;;;;;;;5.64;4.34;;;;;;;20.48;44.92;102178.69;;;;-59
2022/01/23 17:54:56;;;;;;;5.54;4.03;;;;;;;20.52;44.93;102185.33;;;;-62
2022/01/23 17:57:56;;;;;;;6.05;4.43;;;;;;;20.55;44.85;102184.17;;;;-62
2022/01/23 18:00:56;;;;;;;5.97;4.34;;;;;;;20.52;44.63;102183.66;;;;-62
2022/01/23 18:03:55;;;;;;;5.95;4.21;;;;;;;20.50;44.62;102181.03;;;;-63
2022/01/23 18:07:03;;;;;;;5.57;4.09;;;;;;;20.48;44.67;102184.55;;;;-63
2022/01/23 18:09:58;;;;;;;5.31;3.99;;;;;;;20.46;44.64;102187.64;;;;-61
2022/01/23 18:12:56;;;;;;;5.77;3.83;;;;;;;20.46;44.63;102181.84;;;;-62
2022/01/23 18:15:56;;;;;;;5.41;3.90;;;;;;;20.44;44.62;102188.22;;;;-63
2022/01/23 18:18:56;;;;;;;4.84;4.15;;;;;;;20.43;44.67;102193.59;;;;-61
2022/01/23 18:21:56;;;;;;;4.19;3.79;;;;;;;20.42;44.62;102191.62;;;;-63
2022/01/23 18:24:56;;;;;;;5.46;3.92;;;;;;;20.42;44.62;102194.95;;;;-63
2022/01/23 18:27:56;;;;;;;5.09;3.87;;;;;;;20.41;44.67;102195.00;;;;-63
2022/01/23 18:30:56;;;;;;;4.60;3.91;;;;;;;20.41;44.62;102197.11;;;;-61
2022/01/23 18:33:55;;;;;;;5.30;3.91;;;;;;;20.41;44.65;102199.30;;;;-62
2022/01/23 18:36:56;;;;;;;4.09;3.70;;;;;;;20.39;44.64;102200.72;;;;-52
2022/01/23 18:39:57;;;;;;;4.17;3.77;;;;;;;20.38;44.70;102204.13;;;;-51
2022/01/23 18:42:56;;;;;;;4.91;4.01;;;;;;;20.38;44.66;102203.02;;;;-58
2022/01/23 18:45:56;;;;;;;5.37;4.00;;;;;;;20.37;44.64;102205.12;;;;-59
2022/01/23 18:48:55;;;;;;;4.70;3.87;;;;;;;20.36;44.66;102205.20;;;;-59
2022/01/23 18:52:00;;;;;;;4.65;3.94;;;;;;;20.34;44.69;102198.95;;;;-59
2022/01/23 18:55:00;;;;;;;4.37;3.97;;;;;;;20.34;44.69;102194.62;;;;-58
2022/01/23 18:58:04;;;;;;;4.17;3.70;;;;;;;20.33;44.61;102194.66;;;;-59
2022/01/23 19:01:00;;;;;;;5.68;3.87;;;;;;;20.32;44.68;102189.84;;;;-59
2022/01/23 19:04:02;;;;;;;4.45;3.89;;;;;;;20.32;44.69;102198.23;;;;-59
2022/01/23 19:07:01;;;;;;;4.13;3.73;;;;;;;20.28;44.73;102200.48;;;;-59
2022/01/23 19:09:58;;;;;;;4.41;4.01;;;;;;;20.28;44.63;102201.62;;;;-58